createdAt,value
2022-07-27T00:01:40.039Z,101098.72
2022-07-27T00:04:10.523Z,101085.25
2022-07-27T00:06:37.054Z,101102.03
2022-07-27T00:09:03.840Z,101092.00
2022-07-27T00:11:30.338Z,101084.97
2022-07-27T00:13:56.768Z,101086.94
2022-07-27T00:16:23.284Z,101086.34
2022-07-27T00:18:49.752Z,101080.22
2022-07-27T00:21:16.220Z,101088.06
2022-07-27T00:23:42.659Z,101085.81
2022-07-27T00:26:09.201Z,101092.78
2022-07-27T00:28:35.748Z,101092.25
2022-07-27T00:31:02.305Z,101087.47
2022-07-27T00:33:28.788Z,101091.09
2022-07-27T00:35:55.528Z,101085.81
2022-07-27T00:38:21.964Z,101090.53
2022-07-27T00:40:48.384Z,101085.22
2022-07-27T00:43:15.219Z,101080.16
2022-07-27T00:45:41.829Z,101091.91
2022-07-27T00:48:08.470Z,101087.41
2022-07-27T00:50:35.439Z,101086.84
2022-07-27T00:53:04.829Z,101086.84
2022-07-27T00:55:33.470Z,101079.31
2022-07-27T00:58:00.891Z,101084.06
2022-07-27T01:00:28.641Z,101088.78
2022-07-27T01:02:57.130Z,101079.56
2022-07-27T01:05:24.352Z,101094.63
2022-07-27T01:08:03.281Z,101091.28
2022-07-27T01:10:29.753Z,101095.75
2022-07-27T01:12:56.500Z,101094.94
2022-07-27T01:15:22.993Z,101085.69
2022-07-27T01:17:49.443Z,101088.50
2022-07-27T01:20:15.908Z,101088.50
2022-07-27T01:22:42.345Z,101087.34
2022-07-27T01:25:10.074Z,101092.66
2022-07-27T01:27:36.931Z,101087.34
2022-07-27T01:30:24.396Z,101095.44
2022-07-27T01:32:50.937Z,101091.78
2022-07-27T01:35:17.453Z,101087.31
2022-07-27T01:37:48.205Z,101088.69
2022-07-27T01:40:15.048Z,101085.59
2022-07-27T01:42:41.640Z,101084.50
2022-07-27T01:45:09.032Z,101086.69
2022-07-27T01:47:35.486Z,101083.34
2022-07-27T01:50:02.213Z,101087.78
2022-07-27T01:52:28.996Z,101095.25
2022-07-27T01:54:55.456Z,101091.06
2022-07-27T01:57:21.896Z,101093.84
2022-07-27T01:59:48.356Z,101092.41
2022-07-27T02:02:16.102Z,101095.44
2022-07-27T02:04:43.201Z,101086.81
2022-07-27T02:07:09.682Z,101089.88
2022-07-27T02:09:36.309Z,101088.19
2022-07-27T02:12:21.676Z,101085.94
2022-07-27T02:14:48.153Z,101086.22
2022-07-27T02:17:14.605Z,101090.66
2022-07-27T02:19:41.471Z,101094.84
2022-07-27T02:22:08.914Z,101101.81
2022-07-27T02:24:37.745Z,101093.69
2022-07-27T02:27:04.392Z,101090.28
2022-07-27T02:29:30.868Z,101090.53
2022-07-27T02:31:57.426Z,101092.13
2022-07-27T02:34:23.865Z,101099.09
2022-07-27T02:36:50.296Z,101097.66
2022-07-27T02:39:16.686Z,101104.03
2022-07-27T02:41:44.904Z,101103.72
2022-07-27T02:44:11.305Z,101101.41
2022-07-27T02:46:37.781Z,101093.81
2022-07-27T02:49:04.251Z,101096.88
2022-07-27T02:51:30.882Z,101096.56
2022-07-27T02:53:57.283Z,101097.41
2022-07-27T02:56:26.953Z,101099.09
2022-07-27T02:58:53.765Z,101095.38
2022-07-27T03:01:20.262Z,101106.56
2022-07-27T03:03:47.244Z,101105.38
2022-07-27T03:06:13.928Z,101104.75
2022-07-27T03:08:40.595Z,101102.47
2022-07-27T03:11:08.472Z,101096.84
2022-07-27T03:13:34.867Z,101101.50
2022-07-27T03:16:01.586Z,101112.34
2022-07-27T03:18:28.114Z,101106.16
2022-07-27T03:20:54.575Z,101110.00
2022-07-27T03:23:21.461Z,101117.19
2022-07-27T03:25:48.534Z,101111.81
2022-07-27T03:28:14.941Z,101111.69
2022-07-27T03:30:41.520Z,101108.28
2022-07-27T03:33:07.981Z,101102.41
2022-07-27T03:35:34.469Z,101112.38
2022-07-27T03:38:00.938Z,101112.38
2022-07-27T03:40:29.525Z,101117.09
2022-07-27T03:42:56.234Z,101115.94
2022-07-27T03:45:22.680Z,101126.41
2022-07-27T03:47:49.076Z,101120.50
2022-07-27T03:50:15.478Z,101125.75
2022-07-27T03:52:45.443Z,101124.84
2022-07-27T03:55:12.354Z,101124.22
2022-07-27T03:57:38.804Z,101126.44
2022-07-27T04:00:05.900Z,101123.56
2022-07-27T04:02:32.433Z,101130.25
2022-07-27T04:04:58.876Z,101123.50
2022-07-27T04:07:25.802Z,101136.84
2022-07-27T04:09:52.205Z,101131.78
2022-07-27T04:12:19.998Z,101129.22
2022-07-27T04:14:46.593Z,101131.69
2022-07-27T04:17:13.081Z,101140.66
2022-07-27T04:19:59.497Z,101139.03
2022-07-27T04:22:25.966Z,101146.88
2022-07-27T04:24:52.421Z,101139.09
2022-07-27T04:27:18.840Z,101141.88
2022-07-27T04:29:45.248Z,101151.09
2022-07-27T04:32:11.764Z,101148.06
2022-07-27T04:34:38.291Z,101144.75
2022-07-27T04:37:05.853Z,101148.72
2022-07-27T04:39:32.270Z,101153.78
2022-07-27T04:41:58.721Z,101152.94
2022-07-27T04:44:25.154Z,101157.25
2022-07-27T04:46:51.616Z,101165.09
2022-07-27T04:49:18.102Z,101161.47
2022-07-27T04:51:45.029Z,101161.16
2022-07-27T04:54:12.347Z,101165.78
2022-07-27T04:56:38.984Z,101166.53
2022-07-27T04:59:05.480Z,101168.75
2022-07-27T05:01:35.240Z,101166.28
2022-07-27T05:04:04.031Z,101171.94
2022-07-27T05:06:32.888Z,101176.75
2022-07-27T05:09:00.095Z,101172.63
2022-07-27T05:11:26.492Z,101180.97
2022-07-27T05:13:52.902Z,101181.81
2022-07-27T05:16:19.480Z,101190.75
2022-07-27T05:18:46.079Z,101179.94
2022-07-27T05:21:12.613Z,101183.59
2022-07-27T05:23:39.049Z,101188.56
2022-07-27T05:26:05.589Z,101172.34
2022-07-27T05:28:32.315Z,101183.44
2022-07-27T05:30:59.009Z,101187.88
2022-07-27T05:33:25.606Z,101193.22
2022-07-27T05:35:52.364Z,101195.47
2022-07-27T05:38:18.791Z,101198.19
2022-07-27T05:40:46.278Z,101197.50
2022-07-27T05:43:12.778Z,101203.88
2022-07-27T05:45:39.395Z,101204.28
2022-07-27T05:48:06.193Z,101198.09
2022-07-27T05:50:32.650Z,101205.53
2022-07-27T05:53:00.583Z,101211.34
2022-07-27T05:55:27.301Z,101211.84
2022-07-27T05:57:53.814Z,101213.56
2022-07-27T06:00:20.248Z,101220.78
2022-07-27T06:02:46.682Z,101209.66
2022-07-27T06:05:15.929Z,101210.00
2022-07-27T06:07:59.581Z,101217.59
2022-07-27T06:10:32.269Z,101219.88
2022-07-27T06:12:59.710Z,101214.06
2022-07-27T06:15:26.301Z,101220.47
2022-07-27T06:17:54.039Z,101226.63
2022-07-27T06:20:21.522Z,101222.66
2022-07-27T06:22:54.591Z,101227.88
2022-07-27T06:25:22.175Z,101225.88
2022-07-27T06:27:49.073Z,101231.94
2022-07-27T06:30:18.264Z,101232.53
2022-07-27T06:32:46.376Z,101229.84
2022-07-27T06:35:14.018Z,101221.97
2022-07-27T06:37:44.071Z,101233.63
2022-07-27T06:40:14.391Z,101234.84
2022-07-27T06:42:41.542Z,101240.19
2022-07-27T06:45:09.528Z,101237.41
2022-07-27T06:47:36.769Z,101225.31
2022-07-27T06:50:17.578Z,101239.84
2022-07-27T06:52:44.230Z,101235.13
2022-07-27T06:55:10.665Z,101242.97
2022-07-27T06:57:37.064Z,101228.78
2022-07-27T07:00:04.894Z,101244.53
2022-07-27T07:02:31.295Z,101229.34
2022-07-27T07:04:57.770Z,101241.06
2022-07-27T07:07:24.244Z,101240.66
2022-07-27T07:09:51.344Z,101238.88
2022-07-27T07:12:18.358Z,101233.22
2022-07-27T07:14:45.516Z,101236.16
2022-07-27T07:17:12.148Z,101237.69
2022-07-27T07:19:38.691Z,101221.91
2022-07-27T07:22:06.356Z,101233.09
2022-07-27T07:24:32.857Z,101228.88
2022-07-27T07:26:59.302Z,101234.72
2022-07-27T07:29:25.727Z,101231.25
2022-07-27T07:31:52.234Z,101239.38
2022-07-27T07:34:18.715Z,101240.22
2022-07-27T07:36:46.300Z,101234.66
2022-07-27T07:39:13.103Z,101244.84
2022-07-27T07:41:39.769Z,101236.56
2022-07-27T07:44:06.660Z,101227.19
2022-07-27T07:46:33.198Z,101234.88
2022-07-27T07:48:59.745Z,101240.84
2022-07-27T07:51:26.224Z,101230.88
2022-07-27T07:53:52.677Z,101229.16
2022-07-27T07:56:19.116Z,101233.97
2022-07-27T07:58:45.611Z,101241.63
2022-07-27T08:01:12.314Z,101239.25
2022-07-27T08:03:38.750Z,101230.75
2022-07-27T08:06:06.440Z,101233.84
2022-07-27T08:08:33.059Z,101234.22
2022-07-27T08:10:59.491Z,101241.81
2022-07-27T08:13:25.953Z,101234.88
2022-07-27T08:15:52.999Z,101243.28
2022-07-27T08:18:19.894Z,101237.78
2022-07-27T08:20:46.757Z,101243.38
2022-07-27T08:23:13.276Z,101237.81
2022-07-27T08:25:39.800Z,101245.72
2022-07-27T08:28:06.417Z,101240.88
2022-07-27T08:30:34.466Z,101233.91
2022-07-27T08:33:03.489Z,101240.28
2022-07-27T08:35:32.158Z,101233.03
2022-07-27T08:37:59.190Z,101234.66
2022-07-27T08:40:44.080Z,101239.38
2022-07-27T08:43:12.111Z,101238.28
2022-07-27T08:45:41.326Z,101234.97
2022-07-27T08:48:12.809Z,101245.13
2022-07-27T08:50:40.467Z,101224.19
2022-07-27T08:53:09.339Z,101239.31
2022-07-27T08:55:38.955Z,101236.09
2022-07-27T08:58:06.538Z,101230.59
2022-07-27T09:00:34.568Z,101230.13
2022-07-27T09:03:01.383Z,101231.88
2022-07-27T09:05:37.567Z,101232.50
2022-07-27T09:08:28.813Z,101227.66
2022-07-27T09:10:59.156Z,101231.13
2022-07-27T09:13:34.395Z,101230.94
2022-07-27T09:16:19.222Z,101220.09
2022-07-27T09:18:47.135Z,101226.22
2022-07-27T09:21:20.046Z,101217.31
2022-07-27T09:23:50.335Z,101216.75
2022-07-27T09:26:31.154Z,101219.91
2022-07-27T09:29:03.845Z,101210.31
2022-07-27T09:31:31.409Z,101212.91
2022-07-27T09:34:01.598Z,101203.41
2022-07-27T09:36:30.006Z,101205.13
2022-07-27T09:39:07.977Z,101197.00
2022-07-27T09:41:46.696Z,101195.09
2022-07-27T09:44:32.185Z,101193.97
2022-07-27T09:46:59.987Z,101196.75
2022-07-27T09:49:28.956Z,101197.31
2022-07-27T09:51:59.912Z,101187.78
2022-07-27T09:54:27.334Z,101195.59
2022-07-27T09:57:01.801Z,101193.91
2022-07-27T09:59:29.901Z,101197.84
2022-07-27T10:01:57.240Z,101189.41
2022-07-27T10:04:24.984Z,101187.72
2022-07-27T10:07:02.727Z,101197.31
2022-07-27T10:09:31.043Z,101193.41
2022-07-27T10:11:58.352Z,101190.59
2022-07-27T10:14:25.617Z,101190.53
2022-07-27T10:16:53.187Z,101192.13
2022-07-27T10:19:41.862Z,101189.00
2022-07-27T10:22:08.422Z,101186.66
2022-07-27T10:24:37.171Z,101195.84
2022-07-27T10:27:29.307Z,101179.97
2022-07-27T10:29:57.470Z,101190.38
2022-07-27T10:32:31.717Z,101187.22
2022-07-27T10:34:59.764Z,101196.56
2022-07-27T10:37:34.160Z,101193.28
2022-07-27T10:40:26.941Z,101186.09
2022-07-27T10:43:19.979Z,101183.88
2022-07-27T10:46:01.846Z,101188.13
2022-07-27T10:48:46.053Z,101195.91
2022-07-27T10:51:16.564Z,101190.72
2022-07-27T10:54:11.033Z,101188.28
2022-07-27T10:56:47.965Z,101195.91
2022-07-27T10:59:15.028Z,101201.00
2022-07-27T11:01:57.279Z,101205.81
2022-07-27T11:04:24.452Z,101194.53
2022-07-27T11:07:23.611Z,101200.84
2022-07-27T11:12:30.529Z,101190.63
2022-07-27T11:14:58.631Z,101179.41
2022-07-27T11:17:54.745Z,101173.44
2022-07-27T11:20:22.673Z,101171.19
2022-07-27T11:25:35.682Z,101176.03
2022-07-27T11:28:07.481Z,101174.78
2022-07-27T11:30:34.078Z,101172.44
2022-07-27T11:33:04.463Z,101165.94
2022-07-27T11:35:30.941Z,101163.97
2022-07-27T11:38:03.638Z,101168.06
2022-07-27T11:40:59.924Z,101172.16
2022-07-27T11:43:37.690Z,101172.03
2022-07-27T11:46:25.758Z,101165.78
2022-07-27T11:49:09.480Z,101162.53
2022-07-27T11:51:50.101Z,101156.88
2022-07-27T11:54:34.803Z,101148.69
2022-07-27T11:57:04.482Z,101151.25
2022-07-27T11:59:32.656Z,101154.06
2022-07-27T12:02:10.477Z,101142.53
2022-07-27T12:04:39.672Z,101136.44
2022-07-27T12:07:07.959Z,101141.47
2022-07-27T12:09:39.084Z,101111.22
2022-07-27T12:12:12.101Z,101134.97
2022-07-27T12:14:45.745Z,101129.53
2022-07-27T12:17:20.393Z,101123.03
2022-07-27T12:20:00.549Z,101124.94
2022-07-27T12:22:29.608Z,101127.84
2022-07-27T12:24:57.827Z,101122.38
2022-07-27T12:27:26.196Z,101120.22
2022-07-27T12:30:09.260Z,101110.59
2022-07-27T12:32:45.119Z,101111.19
2022-07-27T12:35:24.308Z,101103.91
2022-07-27T12:38:10.989Z,101102.56
2022-07-27T12:40:46.502Z,101111.59
2022-07-27T12:43:17.287Z,101105.72
2022-07-27T12:45:44.188Z,101092.47
2022-07-27T12:48:18.880Z,101103.09
2022-07-27T12:50:48.078Z,101097.38
2022-07-27T12:53:16.630Z,101095.28
2022-07-27T12:55:44.012Z,101095.78
2022-07-27T12:58:13.974Z,101091.09
2022-07-27T13:00:41.243Z,101083.53
2022-07-27T13:03:08.194Z,101075.59
2022-07-27T13:05:36.701Z,101065.59
2022-07-27T13:08:04.756Z,101101.44
2022-07-27T13:10:31.691Z,101086.84
2022-07-27T13:12:59.068Z,101083.31
2022-07-27T13:15:25.772Z,101078.78
2022-07-27T13:17:52.631Z,101075.22
2022-07-27T13:20:19.270Z,101075.75
2022-07-27T13:22:46.765Z,101089.25
2022-07-27T13:25:15.957Z,101089.94
2022-07-27T13:27:44.465Z,101097.56
2022-07-27T13:30:11.949Z,101088.50
2022-07-27T13:32:39.174Z,101105.88
2022-07-27T13:35:07.533Z,101107.53
2022-07-27T13:37:34.067Z,101115.63
2022-07-27T13:40:00.721Z,101105.41
2022-07-27T13:42:27.141Z,101115.53
2022-07-27T13:45:10.849Z,101108.75
2022-07-27T13:47:39.641Z,101109.31
2022-07-27T13:50:15.183Z,101121.22
2022-07-27T13:52:44.469Z,101112.03
2022-07-27T13:55:10.961Z,101126.34
2022-07-27T13:57:37.433Z,101110.19
2022-07-27T14:00:04.614Z,101113.13
2022-07-27T14:02:31.270Z,101124.19
2022-07-27T14:04:58.509Z,101111.53
2022-07-27T14:07:28.242Z,101106.22
2022-07-27T14:10:24.617Z,101105.81
2022-07-27T14:12:54.282Z,101112.31
2022-07-27T14:15:24.965Z,101111.06
2022-07-27T14:17:51.361Z,101102.22
2022-07-27T14:20:18.232Z,101103.84
2022-07-27T14:22:44.676Z,101097.28
2022-07-27T14:25:11.225Z,101101.22
2022-07-27T14:27:37.983Z,101091.28
2022-07-27T14:30:06.751Z,101086.22
2022-07-27T14:32:33.701Z,101086.44
2022-07-27T14:35:00.353Z,101074.41
2022-07-27T14:37:26.760Z,101072.50
2022-07-27T14:39:53.242Z,101082.63
2022-07-27T14:42:22.127Z,101070.34
2022-07-27T14:44:48.514Z,101068.97
2022-07-27T14:47:14.976Z,101068.25
2022-07-27T14:49:41.442Z,101058.63
2022-07-27T14:52:13.253Z,101067.38
2022-07-27T14:54:44.704Z,101068.34
2022-07-27T14:57:11.413Z,101067.03
2022-07-27T14:59:38.628Z,101056.00
2022-07-27T15:02:05.770Z,101061.66
2022-07-27T15:04:33.136Z,101067.00
2022-07-27T15:07:00.040Z,101069.88
2022-07-27T15:09:30.198Z,101067.00
2022-07-27T15:11:59.272Z,101069.50
2022-07-27T15:14:26.419Z,101064.22
2022-07-27T15:16:53.920Z,101066.28
2022-07-27T15:19:20.393Z,101075.97
2022-07-27T15:21:47.267Z,101063.50
2022-07-27T15:24:14.136Z,101060.56
2022-07-27T15:26:40.845Z,101064.41
2022-07-27T15:29:07.513Z,101063.75
2022-07-27T15:31:33.972Z,101065.22
2022-07-27T15:34:01.578Z,101060.41
2022-07-27T15:36:33.371Z,101058.66
2022-07-27T15:39:01.069Z,101048.81
2022-07-27T15:41:27.640Z,101053.16
2022-07-27T15:43:55.304Z,101044.81
2022-07-27T15:46:27.293Z,101037.81
2022-07-27T15:48:54.944Z,101032.25
2022-07-27T15:51:21.460Z,101027.88
2022-07-27T15:53:47.975Z,101023.81
2022-07-27T15:56:14.342Z,101023.81
2022-07-27T15:58:40.819Z,101016.13
2022-07-27T16:01:08.470Z,101014.59
2022-07-27T16:03:38.558Z,101001.19
2022-07-27T16:06:05.075Z,100992.94
2022-07-27T16:08:31.628Z,100999.63
2022-07-27T16:10:58.813Z,101001.22
2022-07-27T16:13:25.793Z,101000.72
2022-07-27T16:16:22.043Z,100994.47
2022-07-27T16:18:49.340Z,100994.41
2022-07-27T16:21:15.818Z,100987.69
2022-07-27T16:23:42.281Z,100995.00
2022-07-27T16:26:08.828Z,100991.69
2022-07-27T16:28:43.173Z,100993.50
2022-07-27T16:31:11.425Z,100993.09
2022-07-27T16:33:38.322Z,100992.94
2022-07-27T16:36:05.773Z,100988.16
2022-07-27T16:38:32.232Z,100990.59
2022-07-27T16:40:58.719Z,100983.91
2022-07-27T16:43:37.961Z,100985.75
2022-07-27T16:46:09.942Z,100990.47
2022-07-27T16:48:42.645Z,100989.59
2022-07-27T16:51:13.760Z,100990.13
2022-07-27T16:53:42.421Z,100990.44
2022-07-27T16:56:09.273Z,100989.41
2022-07-27T16:58:36.458Z,100992.81
2022-07-27T17:01:03.277Z,100996.25
2022-07-27T17:03:29.887Z,101005.66
2022-07-27T17:05:56.435Z,101006.88
2022-07-27T17:08:28.002Z,101009.06
2022-07-27T17:10:55.319Z,101000.72
2022-07-27T17:13:21.915Z,101011.38
2022-07-27T17:15:48.448Z,101008.03
2022-07-27T17:18:16.041Z,101016.88
2022-07-27T17:20:42.480Z,101014.19
2022-07-27T17:23:10.120Z,101020.03
2022-07-27T17:25:36.928Z,101009.97
2022-07-27T17:28:03.632Z,101011.44
2022-07-27T17:30:32.912Z,101007.25
2022-07-27T17:33:02.920Z,101009.41
2022-07-27T17:35:29.432Z,101009.88
2022-07-27T17:38:06.256Z,101017.97
2022-07-27T17:40:34.168Z,101016.41
2022-07-27T17:43:00.721Z,101020.59
2022-07-27T17:45:27.353Z,101021.22
2022-07-27T17:47:53.882Z,101022.66
2022-07-27T17:50:20.423Z,101022.44
2022-07-27T17:52:46.890Z,101020.00
2022-07-27T17:55:13.390Z,101022.88
2022-07-27T17:57:39.828Z,101021.28
2022-07-27T18:00:07.539Z,101023.66
2022-07-27T18:02:36.415Z,101024.94
2022-07-27T18:05:02.846Z,101033.19
2022-07-27T18:07:29.253Z,101035.81
2022-07-27T18:10:06.040Z,101039.88
2022-07-27T18:12:34.410Z,101040.59
2022-07-27T18:15:19.450Z,101042.38
2022-07-27T18:17:45.832Z,101046.50
2022-07-27T18:20:12.472Z,101051.09
2022-07-27T18:22:39.054Z,101052.84
2022-07-27T18:25:07.369Z,101048.97
2022-07-27T18:27:35.350Z,101047.34
2022-07-27T18:30:03.717Z,101044.84
2022-07-27T18:32:30.203Z,101048.31
2022-07-27T18:34:56.652Z,101045.28
2022-07-27T18:37:23.068Z,101054.06
2022-07-27T18:39:49.766Z,101047.63
2022-07-27T18:42:16.236Z,101063.44
2022-07-27T18:44:42.742Z,101051.38
2022-07-27T18:47:09.165Z,101055.38
2022-07-27T18:49:35.776Z,101046.44
2022-07-27T18:52:02.312Z,101046.16
2022-07-27T18:54:29.586Z,101054.06
2022-07-27T18:56:56.223Z,101060.59
2022-07-27T18:59:23.275Z,101057.84
2022-07-27T19:01:49.824Z,101055.34
2022-07-27T19:04:16.671Z,101059.31
2022-07-27T19:06:44.563Z,101063.28
2022-07-27T19:09:13.152Z,101062.19
2022-07-27T19:11:39.794Z,101063.84
2022-07-27T19:14:06.306Z,101072.56
2022-07-27T19:16:34.298Z,101070.63
2022-07-27T19:19:00.926Z,101074.81
2022-07-27T19:21:27.871Z,101070.63
2022-07-27T19:23:54.932Z,101078.47
2022-07-27T19:26:21.373Z,101078.97
2022-07-27T19:28:47.881Z,101073.66
2022-07-27T19:31:22.606Z,101078.94
2022-07-27T19:33:50.999Z,101079.50
2022-07-27T19:36:17.727Z,101085.31
2022-07-27T19:38:44.371Z,101077.16
2022-07-27T19:41:10.820Z,101082.16
2022-07-27T19:43:37.244Z,101088.22
2022-07-27T19:46:03.767Z,101087.63
2022-07-27T19:48:30.309Z,101087.84
2022-07-27T19:51:00.862Z,101091.38
2022-07-27T19:53:30.714Z,101096.34
2022-07-27T19:55:58.171Z,101104.38
2022-07-27T19:58:24.855Z,101109.63
2022-07-27T20:00:51.590Z,101110.13
2022-07-27T20:03:19.272Z,101113.97
2022-07-27T20:05:47.016Z,101109.97
2022-07-27T20:08:13.908Z,101107.91
2022-07-27T20:10:42.505Z,101108.13
2022-07-27T20:13:09.698Z,101112.78
2022-07-27T20:15:36.739Z,101116.88
2022-07-27T20:18:04.009Z,101118.47
2022-07-27T20:20:30.957Z,101114.44
2022-07-27T20:22:58.411Z,101108.25
2022-07-27T20:25:25.775Z,101110.06
2022-07-27T20:27:52.300Z,101112.75
2022-07-27T20:30:19.923Z,101112.91
2022-07-27T20:32:48.289Z,101116.22
2022-07-27T20:35:15.378Z,101105.50
2022-07-27T20:37:42.781Z,101116.63
2022-07-27T20:40:11.656Z,101127.16
2022-07-27T20:42:42.709Z,101124.56
2022-07-27T20:45:11.301Z,101129.25
2022-07-27T20:47:40.909Z,101132.53
2022-07-27T20:50:09.251Z,101130.78
2022-07-27T20:52:36.152Z,101136.28
2022-07-27T20:55:02.610Z,101135.13
2022-07-27T20:57:29.083Z,101136.97
2022-07-27T20:59:55.508Z,101137.41
2022-07-27T21:02:22.091Z,101133.72
2022-07-27T21:04:48.634Z,101134.47
2022-07-27T21:07:15.633Z,101140.22
2022-07-27T21:09:42.056Z,101137.59
2022-07-27T21:12:08.605Z,101141.16
2022-07-27T21:14:34.992Z,101140.44
2022-07-27T21:17:01.566Z,101144.75
2022-07-27T21:19:28.088Z,101139.06
2022-07-27T21:21:54.519Z,101143.47
2022-07-27T21:24:22.766Z,101150.03
2022-07-27T21:26:51.449Z,101153.09
2022-07-27T21:29:19.554Z,101154.41
2022-07-27T21:31:49.065Z,101161.00
2022-07-27T21:34:18.000Z,101161.50
2022-07-27T21:36:45.543Z,101165.38
2022-07-27T21:39:12.259Z,101160.88
2022-07-27T21:41:39.307Z,101160.31
2022-07-27T21:44:05.849Z,101161.28
2022-07-27T21:46:32.335Z,101163.25
2022-07-27T21:48:58.916Z,101162.91
2022-07-27T21:51:25.480Z,101163.63
2022-07-27T21:53:52.065Z,101173.56
2022-07-27T21:56:19.039Z,101164.88
2022-07-27T21:58:45.884Z,101158.13
2022-07-27T22:01:13.292Z,101165.28
2022-07-27T22:03:41.194Z,101161.06
2022-07-27T22:06:09.589Z,101161.22
2022-07-27T22:08:36.292Z,101148.88
2022-07-27T22:11:03.059Z,101150.34
2022-07-27T22:13:29.716Z,101153.34
2022-07-27T22:15:56.280Z,101148.28
2022-07-27T22:18:22.747Z,101151.31
2022-07-27T22:20:49.270Z,101150.13
2022-07-27T22:23:16.231Z,101153.41
2022-07-27T22:25:43.180Z,101160.53
2022-07-27T22:28:09.764Z,101157.63
2022-07-27T22:30:36.284Z,101155.56
2022-07-27T22:33:02.733Z,101148.00
2022-07-27T22:35:29.262Z,101153.06
2022-07-27T22:37:55.663Z,101160.06
2022-07-27T22:40:22.389Z,101167.22
2022-07-27T22:42:48.804Z,101166.84
2022-07-27T22:45:15.320Z,101171.44
2022-07-27T22:47:42.552Z,101163.84
2022-07-27T22:50:17.937Z,101178.22
2022-07-27T22:52:44.954Z,101162.25
2022-07-27T22:55:11.352Z,101180.13
2022-07-27T22:57:37.873Z,101174.69
2022-07-27T23:00:06.044Z,101185.44
2022-07-27T23:02:32.569Z,101193.63
2022-07-27T23:04:59.104Z,101191.97
2022-07-27T23:07:25.642Z,101201.00
2022-07-27T23:09:52.162Z,101192.53
2022-07-27T23:12:18.618Z,101189.13
2022-07-27T23:14:49.088Z,101187.66
2022-07-27T23:17:15.859Z,101191.38
2022-07-27T23:19:42.660Z,101189.31
2022-07-27T23:22:10.977Z,101188.72
2022-07-27T23:24:38.186Z,101175.56
2022-07-27T23:27:07.544Z,101184.34
2022-07-27T23:29:34.007Z,101178.81
2022-07-27T23:32:00.606Z,101184.34
2022-07-27T23:34:29.060Z,101179.88
2022-07-27T23:36:55.784Z,101182.66
2022-07-27T23:39:22.216Z,101186.06
2022-07-27T23:41:50.182Z,101186.88
2022-07-27T23:44:17.489Z,101185.44
2022-07-27T23:46:44.145Z,101178.81
2022-07-27T23:49:10.835Z,101175.66
2022-07-27T23:51:37.382Z,101173.59
2022-07-27T23:54:03.890Z,101173.00
2022-07-27T23:56:30.330Z,101167.69
2022-07-27T23:58:56.768Z,101176.22
